Time;durP1;ratioP1;P1;durP2;ratioP2;P2;SDS_P1;SDS_P2;PMS_P1;PMS_P2;Temp;Humidity;BMP_temperature;BMP_pressure;BME280_temperature;BME280_humidity;BME280_pressure;Samples;Min_cycle;Max_cycle;Signal;HPM_P1;HPM_P2
2022/10/20 04:36:27;;;;;;;9.68;4.75;;;;;;;7.78;100.00;100060.06;5054935;28;20052;-93
2022/10/20 04:38:55;;;;;;;9.73;4.27;;;;;;;7.79;100.00;100052.72;5035666;28;20041;-93
2022/10/20 04:41:21;;;;;;;8.93;4.30;;;;;;;7.78;100.00;100049.22;5036139;28;20091;-89
2022/10/20 04:43:51;;;;;;;8.93;4.20;;;;;;;7.71;100.00;100040.72;5052831;28;20033;-83
2022/10/20 04:46:17;;;;;;;7.95;4.15;;;;;;;7.69;100.00;100044.88;5034351;28;20035;-86
2022/10/20 04:48:43;;;;;;;;;;;;;;;7.71;100.00;100045.34;5051892;28;20056;-88
2022/10/20 04:51:12;;;;;;;10.25;3.92;;;;;;;7.81;100.00;100037.72;5034881;28;19913;-88
2022/10/20 04:53:38;;;;;;;9.93;3.90;;;;;;;7.83;100.00;100032.78;5055615;28;20021;-87
2022/10/20 04:56:09;;;;;;;10.02;3.70;;;;;;;7.77;100.00;100038.69;5021925;28;20393;-90
2022/10/20 04:58:36;;;;;;;9.15;4.18;;;;;;;7.82;100.00;100033.09;5038931;28;20505;-89
2022/10/20 05:01:04;;;;;;;9.63;4.05;;;;;;;7.88;100.00;100020.97;5056584;28;20139;-89
2022/10/20 05:03:31;;;;;;;8.57;4.60;;;;;;;8.03;100.00;100017.78;5056695;28;20027;-89
2022/10/20 05:06:11;;;;;;;11.15;4.20;;;;;;;7.96;100.00;100016.69;5056480;28;20073;-89
2022/10/20 05:08:39;;;;;;;7.63;3.70;;;;;;;8.04;100.00;100000.41;5039861;28;20021;-89
2022/10/20 05:11:07;;;;;;;10.80;4.00;;;;;;;8.06;100.00;99989.22;5040977;28;20524;-89
2022/10/20 05:13:32;;;;;;;11.98;4.22;;;;;;;8.04;100.00;99980.63;5056150;28;20096;-90
2022/10/20 05:15:58;;;;;;;9.87;4.10;;;;;;;7.96;100.00;99990.38;5056236;28;20056;-91
2022/10/20 05:18:23;;;;;;;10.07;4.45;;;;;;;7.99;100.00;99983.50;5056793;28;20100;-90
2022/10/20 05:20:48;;;;;;;7.87;3.70;;;;;;;7.97;100.00;99980.31;5038652;28;20079;-90
2022/10/20 05:23:14;;;;;;;10.13;4.17;;;;;;;7.97;100.00;99966.75;5055718;28;20115;-89
2022/10/20 05:25:39;;;;;;;8.75;4.82;;;;;;;8.03;100.00;99963.56;5039157;28;20484;-88
2022/10/20 05:28:05;;;;;;;12.65;4.85;;;;;;;7.98;100.00;99976.50;5056738;28;20025;-92
2022/10/20 05:30:32;;;;;;;8.48;4.32;;;;;;;7.97;100.00;99964.84;5055293;28;20028;-89
2022/10/20 05:33:00;;;;;;;11.35;4.88;;;;;;;8.14;100.00;99981.09;5054566;28;20044;-88
2022/10/20 05:35:29;;;;;;;12.00;4.50;;;;;;;8.20;99.93;99968.16;5055729;28;20051;-88
2022/10/20 05:37:55;;;;;;;8.38;3.78;;;;;;;8.21;99.24;99967.03;5057766;28;20064;-89
2022/10/20 05:40:20;;;;;;;11.13;4.95;;;;;;;8.18;99.21;99964.19;5041057;28;20025;-88
2022/10/20 05:42:46;;;;;;;10.27;5.00;;;;;;;8.03;99.48;99958.13;5062101;28;20032;-88
2022/10/20 05:45:11;;;;;;;10.00;5.00;;;;;;;7.99;99.61;99954.47;5058543;28;20028;-88
2022/10/20 05:47:36;;;;;;;9.95;4.93;;;;;;;7.94;100.00;99949.22;5038939;28;20031;-89
2022/10/20 05:50:03;;;;;;;11.53;5.50;;;;;;;7.97;100.00;99954.00;5057610;28;20024;-90
2022/10/20 05:52:29;;;;;;;;;;;;;;;7.90;100.00;99947.50;5066214;28;20059;-90
2022/10/20 05:54:55;;;;;;;12.10;4.95;;;;;;;8.03;100.00;99957.34;5044910;28;19909;-90
2022/10/20 05:57:26;;;;;;;12.57;5.63;;;;;;;8.13;100.00;99951.59;5058188;28;20386;-90
2022/10/20 05:59:51;;;;;;;11.63;4.78;;;;;;;8.19;99.34;99947.56;5058313;28;20025;-90
2022/10/20 06:02:17;;;;;;;9.47;4.10;;;;;;;8.27;99.94;99957.63;5057726;28;20393;-88
2022/10/20 06:04:42;;;;;;;13.27;4.80;;;;;;;8.24;98.90;99946.63;5058362;28;20259;-90
2022/10/20 06:07:10;;;;;;;13.70;5.70;;;;;;;8.27;98.60;99954.13;5058821;28;20025;-89
2022/10/20 06:09:37;;;;;;;10.23;4.30;;;;;;;8.27;99.74;99951.41;5058025;28;20290;-90
2022/10/20 06:12:02;;;;;;;8.32;4.10;;;;;;;8.37;98.94;99949.16;5055745;28;20166;-87
2022/10/20 06:14:28;;;;;;;11.63;4.78;;;;;;;8.47;98.37;99949.94;5036809;28;20474;-88
2022/10/20 06:16:54;;;;;;;11.95;5.20;;;;;;;8.44;98.44;99951.38;5055106;28;20064;-88
2022/10/20 06:19:21;;;;;;;11.18;4.22;;;;;;;8.46;98.54;99946.44;5037955;28;20108;-88
2022/10/20 06:21:47;;;;;;;11.70;4.28;;;;;;;8.51;98.85;99950.88;5055725;28;20031;-87
2022/10/20 06:24:13;;;;;;;10.63;4.22;;;;;;;8.62;98.95;99952.13;5036648;28;20497;-87
2022/10/20 06:26:39;;;;;;;10.73;4.93;;;;;;;8.58;98.22;99949.25;5053846;28;20024;-88
2022/10/20 06:29:09;;;;;;;10.45;4.60;;;;;;;8.51;98.27;99946.25;5054368;28;20021;-88
2022/10/20 06:31:39;;;;;;;11.55;4.88;;;;;;;8.94;99.60;99948.78;5053674;28;20496;-84
2022/10/20 06:34:06;;;;;;;9.75;5.13;;;;;;;9.58;99.13;99945.81;5053176;28;20124;-84
2022/10/20 06:36:37;;;;;;;8.60;4.07;;;;;;;10.21;96.75;99941.09;5053001;28;20059;-84
2022/10/20 06:39:04;;;;;;;8.57;4.30;;;;;;;10.30;95.83;99938.28;5053107;28;20450;-83
2022/10/20 06:41:31;;;;;;;11.10;3.95;;;;;;;10.66;94.69;99928.59;5053714;28;20039;-85
2022/10/20 06:43:58;;;;;;;11.30;4.60;;;;;;;10.84;94.36;99936.19;5036626;28;20036;-85
2022/10/20 06:46:31;;;;;;;8.32;3.90;;;;;;;11.08;93.17;99935.38;5036144;28;20032;-83
2022/10/20 06:49:03;;;;;;;7.93;3.60;;;;;;;11.30;91.94;99941.50;5053939;28;20032;-84
2022/10/20 06:51:28;;;;;;;8.10;3.65;;;;;;;11.42;91.64;99938.72;5035821;28;20033;-84
2022/10/20 06:53:54;;;;;;;8.00;3.65;;;;;;;11.57;91.48;99946.19;5053269;28;20059;-85
2022/10/20 06:56:22;;;;;;;7.20;3.53;;;;;;;11.66;90.68;99940.59;5053269;28;20032;-85
2022/10/20 06:58:50;;;;;;;7.45;4.00;;;;;;;11.57;90.37;99939.94;5053068;28;20017;-85
2022/10/20 07:01:23;;;;;;;11.98;4.30;;;;;;;11.64;90.44;99949.13;5052566;28;20035;-84
2022/10/20 07:03:50;;;;;;;7.55;3.47;;;;;;;11.74;90.62;99948.63;5034804;28;20108;-83
2022/10/20 07:06:19;;;;;;;7.28;3.55;;;;;;;11.91;89.97;99944.06;5052491;28;20024;-84
2022/10/20 07:08:45;;;;;;;10.02;3.80;;;;;;;12.01;89.72;99947.09;5035362;28;20028;-82
2022/10/20 07:11:12;;;;;;;;;;;;;;;12.16;89.20;99942.03;5053284;28;20021;-84
2022/10/20 07:13:39;;;;;;;8.90;3.42;;;;;;;12.39;87.72;99937.56;5052226;28;19968;-84
2022/10/20 07:16:06;;;;;;;8.55;3.15;;;;;;;12.37;87.97;99931.66;5052392;28;20033;-82
2022/10/20 07:18:32;;;;;;;8.07;3.50;;;;;;;12.44;87.81;99911.94;5052454;28;20048;-83
2022/10/20 07:21:02;;;;;;;6.38;3.15;;;;;;;12.45;87.67;99913.53;5034929;28;20029;-82
2022/10/20 07:23:29;;;;;;;6.82;3.40;;;;;;;12.55;87.28;99926.66;5052871;28;20036;-84
2022/10/20 07:26:24;;;;;;;8.57;3.97;;;;;;;12.58;87.29;99925.94;5052255;28;20031;-83
2022/10/20 07:28:52;;;;;;;8.48;3.35;;;;;;;12.57;87.29;99929.81;5052566;28;20036;-85
2022/10/20 07:31:23;;;;;;;7.68;3.55;;;;;;;12.73;87.01;99933.34;5053326;28;20039;-83
2022/10/20 07:33:49;;;;;;;12.65;3.85;;;;;;;12.80;86.62;99935.47;5031525;28;20160;-85
2022/10/20 07:36:20;;;;;;;6.83;3.90;;;;;;;12.91;86.27;99933.75;5052761;28;20515;-83
2022/10/20 07:38:46;;;;;;;7.28;3.17;;;;;;;12.93;85.70;99943.22;5030339;28;20293;-85
2022/10/20 07:41:14;;;;;;;7.60;2.85;;;;;;;13.04;85.55;99945.41;5053048;28;20029;-84
2022/10/20 07:43:40;;;;;;;8.35;3.75;;;;;;;13.09;85.63;99947.84;5035073;28;20025;-88
2022/10/20 07:46:07;;;;;;;6.90;3.55;;;;;;;13.17;84.92;99934.00;5033876;28;20479;-85
2022/10/20 07:48:33;;;;;;;6.03;3.25;;;;;;;13.15;85.50;99933.56;5052398;28;20029;-85
2022/10/20 07:51:27;;;;;;;9.07;3.67;;;;;;;13.34;84.36;99927.38;5052290;28;20440;-85
2022/10/20 07:53:57;;;;;;;7.88;3.30;;;;;;;13.28;84.50;99926.06;5052115;28;20029;-86
2022/10/20 07:56:24;;;;;;;6.18;2.70;;;;;;;13.41;84.19;99916.56;5051817;28;20132;-84
2022/10/20 07:58:50;;;;;;;6.32;3.10;;;;;;;13.58;82.62;99911.84;5051772;28;20029;-83
2022/10/20 08:01:15;;;;;;;8.95;3.35;;;;;;;13.63;82.94;99903.38;5051746;28;20312;-84
2022/10/20 08:03:41;;;;;;;;;;;;;;;13.66;82.56;99910.84;5017575;28;20048;-85
2022/10/20 08:06:07;;;;;;;7.60;2.97;;;;;;;13.68;81.55;99892.91;5053285;28;19916;-85
2022/10/20 08:08:33;;;;;;;6.15;2.78;;;;;;;13.70;81.86;99898.81;5051928;28;20017;-83
2022/10/20 08:10:59;;;;;;;7.28;3.85;;;;;;;13.69;82.45;99899.97;5033825;28;20040;-84
2022/10/20 08:13:24;;;;;;;;;;;;;;;13.67;81.62;99915.16;5052100;28;20044;-83
2022/10/20 08:15:50;;;;;;;7.18;3.17;;;;;;;13.66;81.82;99899.91;5051711;28;20328;-84
2022/10/20 08:18:15;;;;;;;;;;;;;;;13.71;81.66;99903.13;5051590;28;20032;-82
2022/10/20 08:20:40;;;;;;;7.07;2.50;;;;;;;13.75;81.14;99905.94;5051012;28;19916;-86
2022/10/20 08:23:06;;;;;;;5.90;2.73;;;;;;;13.63;82.48;99912.38;5051397;28;20286;-83
2022/10/20 08:25:32;;;;;;;;;;;;;;;13.73;81.38;99914.50;5051713;28;20485;-84
2022/10/20 08:27:57;;;;;;;5.95;2.58;;;;;;;13.83;80.74;99911.19;5054429;28;19944;-83
2022/10/20 08:30:24;;;;;;;6.13;2.72;;;;;;;13.83;80.84;99907.66;5036929;28;20049;-84
2022/10/20 08:32:51;;;;;;;7.82;3.22;;;;;;;13.88;81.33;99909.31;5053799;28;20108;-85
2022/10/20 08:35:20;;;;;;;5.38;2.67;;;;;;;13.92;80.32;99902.75;5037347;28;20028;-85
2022/10/20 08:37:49;;;;;;;7.07;2.97;;;;;;;14.03;80.76;99903.75;5054699;28;20088;-83
2022/10/20 08:40:21;;;;;;;5.43;2.53;;;;;;;14.03;80.40;99903.75;5055113;28;20041;-86
2022/10/20 08:42:48;;;;;;;5.63;2.70;;;;;;;14.11;79.73;99897.25;5037258;28;20108;-86
2022/10/20 08:45:16;;;;;;;6.38;2.85;;;;;;;14.12;80.48;99896.09;5055064;28;20055;-83
2022/10/20 08:47:43;;;;;;;5.10;2.45;;;;;;;14.19;80.23;99906.38;5055422;28;20092;-82
2022/10/20 08:50:14;;;;;;;5.97;3.10;;;;;;;14.23;80.63;99903.72;5054726;28;20025;-84
2022/10/20 08:52:41;;;;;;;5.88;2.60;;;;;;;14.08;81.43;99888.97;5020764;28;20061;-84
2022/10/20 08:55:07;;;;;;;7.97;2.78;;;;;;;14.12;81.22;99898.84;5054705;28;20031;-84
2022/10/20 08:57:34;;;;;;;8.38;2.65;;;;;;;14.25;80.53;99898.66;5036766;28;20138;-84
2022/10/20 09:00:22;;;;;;;4.75;2.50;;;;;;;14.13;81.08;99900.44;5054756;28;20078;-84
2022/10/20 09:02:49;;;;;;;7.63;2.75;;;;;;;14.27;79.90;99897.13;5055165;28;20027;-83
2022/10/20 09:05:20;;;;;;;5.68;2.38;;;;;;;14.28;80.25;99884.25;5054621;28;20100;-83
2022/10/20 09:07:48;;;;;;;8.63;2.85;;;;;;;14.31;80.05;99889.78;5037282;28;20488;-84
2022/10/20 09:10:29;;;;;;;18.52;3.13;;;;;;;14.24;80.39;99891.59;5036774;28;20033;-83
2022/10/20 09:12:54;;;;;;;5.20;2.60;;;;;;;14.53;79.71;99901.94;5054601;28;20048;-83
2022/10/20 09:15:25;;;;;;;5.78;2.83;;;;;;;14.36;80.21;99896.91;5054205;28;20059;-85
2022/10/20 09:18:12;;;;;;;5.97;2.75;;;;;;;14.07;80.73;99895.59;5054245;28;20024;-83
2022/10/20 09:21:02;;;;;;;8.07;2.83;;;;;;;14.18;80.37;99904.00;5054665;28;20090;-87
2022/10/20 09:23:39;;;;;;;7.70;2.40;;;;;;;14.23;80.45;99900.97;5054661;28;20016;-82
2022/10/20 09:26:20;;;;;;;5.85;2.55;;;;;;;14.22;80.58;99882.97;5054373;28;20037;-86
2022/10/20 09:28:52;;;;;;;5.47;2.63;;;;;;;14.26;80.41;99873.63;5054436;28;20027;-86
2022/10/20 09:31:31;;;;;;;9.05;2.42;;;;;;;14.37;79.85;99880.09;5054597;28;20097;-85
2022/10/20 09:33:57;;;;;;;;;;;;;;;14.26;80.33;99872.84;5055312;28;20029;-86
2022/10/20 09:36:29;;;;;;;6.32;1.98;;;;;;;14.17;81.27;99864.09;5037600;28;20285;-86
2022/10/20 09:38:54;;;;;;;6.40;2.88;;;;;;;14.28;80.18;99865.09;5054431;28;20458;-84
2022/10/20 09:41:23;;;;;;;5.50;2.97;;;;;;;14.19;81.37;99867.25;5053856;28;20046;-85
2022/10/20 09:44:06;;;;;;;5.85;2.58;;;;;;;14.29;81.15;99866.66;5053245;28;20054;-84
2022/10/20 09:46:38;;;;;;;5.30;2.95;;;;;;;14.37;80.68;99862.88;5054277;28;20537;-84
2022/10/20 09:49:06;;;;;;;9.10;3.20;;;;;;;14.42;80.14;99848.88;5055555;28;20100;-86
2022/10/20 09:51:32;;;;;;;6.70;2.63;;;;;;;14.34;81.11;99853.44;5036068;28;20118;-85
2022/10/20 09:54:18;;;;;;;5.38;2.55;;;;;;;14.36;81.00;99864.03;5053573;28;20037;-84
2022/10/20 09:56:45;;;;;;;7.78;2.67;;;;;;;14.24;80.45;99856.78;5054802;28;20033;-85
2022/10/20 09:59:34;;;;;;;7.68;2.60;;;;;;;14.24;80.58;99850.53;5055356;28;20037;-93
2022/10/20 10:02:22;;;;;;;6.10;2.20;;;;;;;14.28;80.36;99854.13;5054415;28;20043;-91
2022/10/20 10:04:53;;;;;;;7.13;2.50;;;;;;;14.09;81.16;99853.00;5055200;28;20532;-89
2022/10/20 10:07:24;;;;;;;5.47;2.55;;;;;;;14.18;80.51;99850.03;5053600;28;20024;-88
2022/10/20 10:09:59;;;;;;;6.35;2.63;;;;;;;14.10;80.83;99851.06;5054062;28;20117;-93
2022/10/20 10:12:26;;;;;;;6.25;2.42;;;;;;;14.09;81.18;99858.47;5054767;28;20500;-87
2022/10/20 10:14:53;;;;;;;8.30;2.60;;;;;;;14.14;80.92;99852.72;5052776;28;20029;-89
2022/10/20 10:17:33;;;;;;;6.47;2.90;;;;;;;14.09;81.50;99850.28;5051929;28;20021;-85
2022/10/20 10:20:00;;;;;;;7.53;2.70;;;;;;;14.14;80.93;99865.63;5055391;28;20029;-91
2022/10/20 10:22:26;;;;;;;5.60;2.42;;;;;;;13.96;82.33;99867.25;5053724;28;20017;-85
2022/10/20 10:24:54;;;;;;;5.32;2.50;;;;;;;14.03;81.69;99889.28;5052092;28;20025;-86
2022/10/20 10:27:22;;;;;;;7.25;2.70;;;;;;;14.09;81.75;99877.66;5054733;28;20090;-87
2022/10/20 10:29:48;;;;;;;5.93;2.63;;;;;;;13.97;82.19;99874.31;5053087;28;20032;-86
2022/10/20 10:32:36;;;;;;;6.82;3.10;;;;;;;14.10;81.95;99876.50;5053586;28;20024;-88
2022/10/20 10:35:26;;;;;;;6.65;2.63;;;;;;;14.04;82.17;99880.69;5053335;28;20039;-84
2022/10/20 10:37:54;;;;;;;7.10;2.97;;;;;;;13.97;82.78;99875.09;5052961;28;20056;-85
2022/10/20 10:40:27;;;;;;;8.38;2.63;;;;;;;14.25;81.67;99882.22;5034904;28;20111;-85
2022/10/20 10:43:21;;;;;;;5.45;2.05;;;;;;;14.12;81.94;99876.16;5052820;28;20462;-84
2022/10/20 10:46:12;;;;;;;7.65;2.88;;;;;;;14.05;82.12;99871.31;5053059;28;20029;-82
2022/10/20 10:48:55;;;;;;;4.85;2.60;;;;;;;13.95;84.16;99882.88;5014425;28;20037;-87
2022/10/20 10:51:39;;;;;;;8.15;3.22;;;;;;;13.90;84.85;99883.16;5053614;28;20401;-94
2022/10/20 10:54:11;;;;;;;8.50;3.30;;;;;;;13.82;87.46;99884.19;5035075;28;20020;-90
2022/10/20 10:56:43;;;;;;;6.32;3.20;;;;;;;13.68;87.75;99875.72;5035670;28;20076;-90
2022/10/20 10:59:34;;;;;;;8.35;3.13;;;;;;;13.71;87.48;99867.56;5053064;28;20419;-89
2022/10/20 11:02:33;;;;;;;8.07;3.63;;;;;;;13.65;89.11;99868.22;5034858;28;20563;-85
2022/10/20 11:05:20;;;;;;;5.78;2.88;;;;;;;13.77;89.03;99857.09;5037058;28;20024;-85
2022/10/20 11:08:00;;;;;;;7.22;2.90;;;;;;;13.80;88.97;99854.47;5053298;28;20028;-86
2022/10/20 11:10:49;;;;;;;6.78;3.25;;;;;;;13.69;89.67;99850.72;5053179;28;20082;-85
2022/10/20 11:13:42;;;;;;;6.68;3.20;;;;;;;13.92;88.62;99842.53;5053933;28;20338;-86
2022/10/20 11:16:22;;;;;;;8.43;3.50;;;;;;;13.85;89.45;99836.94;5053337;28;20036;-83
2022/10/20 11:19:16;;;;;;;8.40;3.03;;;;;;;14.00;88.38;99827.84;5053364;28;20029;-87
2022/10/20 11:22:11;;;;;;;6.28;3.00;;;;;;;13.89;88.92;99818.63;5035991;28;20489;-85
2022/10/20 11:24:52;;;;;;;6.57;3.50;;;;;;;14.10;88.59;99815.47;5035713;28;20140;-80
2022/10/20 11:27:19;;;;;;;5.03;2.72;;;;;;;14.18;88.29;99822.66;5053140;28;20074;-77
2022/10/20 11:29:52;;;;;;;9.60;3.20;;;;;;;14.15;88.44;99806.97;5052472;28;20029;-77
2022/10/20 11:35:47;;;;;;;7.00;3.38;;;;;;;14.15;89.33;99818.72;5052187;28;20083;-77
2022/10/20 11:38:44;;;;;;;8.05;3.60;;;;;;;14.13;89.51;99825.72;5051626;28;20072;-78
2022/10/20 11:41:37;;;;;;;7.45;3.10;;;;;;;14.11;90.03;99823.34;5051138;28;20033;-78
2022/10/20 11:44:16;;;;;;;6.45;2.67;;;;;;;14.21;89.41;99823.88;5051958;28;20102;-78
2022/10/20 11:47:07;;;;;;;7.13;3.60;;;;;;;14.15;89.82;99826.94;5051934;28;20021;-78
2022/10/20 11:49:33;;;;;;;6.57;3.42;;;;;;;14.08;90.32;99834.22;5051780;28;20032;-77
2022/10/20 11:52:25;;;;;;;7.57;3.10;;;;;;;14.05;90.41;99834.94;5033864;28;20029;-79
2022/10/20 11:55:17;;;;;;;6.00;3.45;;;;;;;14.03;90.41;99832.56;5049708;28;20045;-80
2022/10/20 11:57:54;;;;;;;7.25;3.20;;;;;;;14.04;91.20;99827.88;5052026;28;20489;-78
2022/10/20 12:00:44;;;;;;;10.88;3.20;;;;;;;13.90;92.20;99841.31;5052178;28;20037;-77
2022/10/20 12:03:28;;;;;;;8.95;3.90;;;;;;;13.87;93.04;99833.84;5055983;28;20032;-80
2022/10/20 12:06:17;;;;;;;8.23;3.72;;;;;;;13.73;94.08;99826.94;5055682;28;20059;-79
2022/10/20 12:08:50;;;;;;;10.02;3.70;;;;;;;13.58;94.98;99841.50;5055880;28;20041;-78
2022/10/20 12:11:24;;;;;;;8.52;3.92;;;;;;;13.47;95.55;99835.84;5055883;28;20470;-78
2022/10/20 12:14:14;;;;;;;7.75;3.72;;;;;;;13.29;97.52;99826.50;5055968;28;20037;-80
2022/10/20 12:16:54;;;;;;;7.80;3.70;;;;;;;13.18;97.71;99820.00;5045652;28;20033;-83
2022/10/20 12:19:21;;;;;;;7.72;4.10;;;;;;;13.18;98.37;99836.41;5055606;28;20074;-80
2022/10/20 12:22:12;;;;;;;7.82;4.25;;;;;;;13.00;100.00;99846.13;5037722;28;20032;-79
2022/10/20 12:24:51;;;;;;;6.63;3.80;;;;;;;13.05;99.71;99846.63;5056251;28;20075;-79
2022/10/20 12:27:19;;;;;;;10.55;4.85;;;;;;;13.00;100.00;99835.22;5055824;28;20028;-79
2022/10/20 12:29:51;;;;;;;10.63;5.05;;;;;;;12.87;100.00;99832.59;5056082;28;20033;-79
2022/10/20 12:32:33;;;;;;;9.63;5.05;;;;;;;12.76;100.00;99828.03;5055585;28;20024;-80
2022/10/20 12:35:01;;;;;;;10.98;4.63;;;;;;;12.81;100.00;99822.31;5055422;28;20021;-80
2022/10/20 12:37:28;;;;;;;8.55;4.45;;;;;;;12.77;100.00;99810.50;5055197;28;20045;-80
2022/10/20 12:39:58;;;;;;;11.65;5.13;;;;;;;12.97;100.00;99809.38;5037613;28;20025;-81
2022/10/20 12:42:32;;;;;;;11.18;5.53;;;;;;;12.90;100.00;99809.22;5055480;28;20112;-80
2022/10/20 12:45:03;;;;;;;9.88;4.57;;;;;;;12.83;100.00;99800.88;5055074;28;20124;-80
2022/10/20 12:47:33;;;;;;;12.18;5.32;;;;;;;12.94;100.00;99794.50;5055487;28;20020;-81
2022/10/20 12:50:00;;;;;;;7.95;4.13;;;;;;;12.94;100.00;99780.03;5055184;28;20100;-84
2022/10/20 12:52:31;;;;;;;10.38;4.70;;;;;;;13.00;100.00;99764.16;5037540;28;20021;-83
2022/10/20 12:55:18;;;;;;;12.32;5.07;;;;;;;12.94;100.00;99775.38;5037047;28;20028;-84
2022/10/20 12:57:45;;;;;;;11.60;5.03;;;;;;;12.86;100.00;99765.44;5037189;28;20079;-84
2022/10/20 13:00:22;;;;;;;8.43;4.53;;;;;;;12.94;100.00;99772.63;5055558;28;20106;-81
2022/10/20 13:02:53;;;;;;;10.85;5.55;;;;;;;12.93;100.00;99771.06;5055934;28;20044;-84
2022/10/20 13:05:18;;;;;;;10.55;5.93;;;;;;;13.07;100.00;99775.22;5055906;28;20024;-82
2022/10/20 13:07:46;;;;;;;9.87;4.77;;;;;;;13.03;100.00;99786.06;5055279;28;20143;-83
2022/10/20 13:10:30;;;;;;;9.25;5.03;;;;;;;13.08;100.00;99780.31;5055140;28;20067;-82
2022/10/20 13:13:01;;;;;;;13.27;5.80;;;;;;;13.08;100.00;99776.78;5036446;28;20417;-81
2022/10/20 13:15:41;;;;;;;10.65;5.32;;;;;;;13.18;100.00;99777.06;5036705;28;20100;-83
2022/10/20 13:18:10;;;;;;;8.88;4.78;;;;;;;13.39;100.00;99787.59;5054730;28;20032;-83
2022/10/20 13:20:48;;;;;;;11.13;5.25;;;;;;;13.39;100.00;99787.59;5054630;28;20380;-80
2022/10/20 13:23:23;;;;;;;9.52;4.63;;;;;;;13.58;100.00;99784.06;5054868;28;20055;-83
2022/10/20 13:25:50;;;;;;;11.32;5.47;;;;;;;13.56;100.00;99780.91;5054839;28;20029;-84
2022/10/20 13:28:23;;;;;;;10.05;4.75;;;;;;;13.59;100.00;99782.91;5054379;28;20024;-83
2022/10/20 13:30:51;;;;;;;12.18;4.95;;;;;;;13.58;100.00;99777.78;5054135;28;20059;-84
2022/10/20 13:33:30;;;;;;;10.45;4.95;;;;;;;13.64;100.00;99777.16;5054593;28;20028;-85
2022/10/20 13:36:04;;;;;;;13.48;4.90;;;;;;;13.79;100.00;99761.78;5054926;28;20033;-83
2022/10/20 13:38:48;;;;;;;10.05;4.30;;;;;;;13.92;100.00;99763.16;5038092;28;20041;-81
2022/10/20 13:41:36;;;;;;;8.68;4.35;;;;;;;14.03;100.00;99764.13;5036229;28;20048;-82
2022/10/20 13:44:26;;;;;;;8.68;4.25;;;;;;;14.07;100.00;99761.44;5054435;28;20032;-81
2022/10/20 13:47:25;;;;;;;10.98;4.95;;;;;;;14.15;100.00;99763.16;5036128;28;20347;-85
2022/10/20 13:50:12;;;;;;;9.95;5.18;;;;;;;14.21;100.00;99763.63;5054309;28;20383;-81
2022/10/20 13:52:44;;;;;;;10.30;4.50;;;;;;;14.28;100.00;99745.38;5054165;28;20028;-81
2022/10/20 13:55:23;;;;;;;8.15;4.43;;;;;;;14.37;100.00;99753.31;5053716;28;20039;-81
2022/10/20 13:58:06;;;;;;;10.73;4.85;;;;;;;14.36;100.00;99741.56;5037362;28;20036;-82
2022/10/20 14:00:34;;;;;;;11.27;5.00;;;;;;;14.52;100.00;99744.19;5054023;28;20032;-81
2022/10/20 14:03:16;;;;;;;7.72;4.28;;;;;;;14.55;100.00;99743.44;5053600;28;20461;-81
2022/10/20 14:05:43;;;;;;;9.95;4.63;;;;;;;14.42;100.00;99740.09;5053945;28;20044;-82
2022/10/20 14:08:10;;;;;;;8.25;4.45;;;;;;;14.51;99.48;99745.34;5053559;28;20470;-80
2022/10/20 14:10:42;;;;;;;11.52;4.47;;;;;;;14.64;99.53;99745.91;5053226;28;20044;-81
2022/10/20 14:13:17;;;;;;;8.43;4.13;;;;;;;14.60;100.00;99745.84;5053454;28;20032;-79
2022/10/20 14:15:47;;;;;;;9.32;4.28;;;;;;;14.81;98.67;99747.31;5053449;28;20027;-80
2022/10/20 14:18:26;;;;;;;7.63;4.30;;;;;;;14.84;98.33;99735.59;5053068;28;20051;-81
2022/10/20 14:21:13;;;;;;;17.48;4.38;;;;;;;14.95;96.74;99731.06;5053552;28;20025;-85
2022/10/20 14:23:41;;;;;;;8.90;4.05;;;;;;;14.94;97.17;99730.25;5052783;28;20369;-82
2022/10/20 14:26:12;;;;;;;9.02;4.03;;;;;;;15.01;96.28;99730.34;5053836;28;20465;-82
2022/10/20 14:28:38;;;;;;;8.55;4.45;;;;;;;15.09;95.96;99724.94;5035289;28;20013;-82
2022/10/20 14:31:05;;;;;;;7.43;3.72;;;;;;;15.18;95.51;99734.47;5053153;28;20039;-81
2022/10/20 14:33:33;;;;;;;7.47;3.80;;;;;;;15.13;95.45;99723.84;5035134;28;20039;-81
2022/10/20 14:36:01;;;;;;;8.63;4.65;;;;;;;15.22;95.05;99713.34;5053272;28;20024;-81
2022/10/20 14:38:36;;;;;;;7.28;3.35;;;;;;;15.31;95.01;99713.06;5051628;28;20501;-82
2022/10/20 14:41:03;;;;;;;8.63;3.85;;;;;;;15.30;94.02;99712.25;5053099;28;20558;-82
2022/10/20 14:43:42;;;;;;;10.55;3.60;;;;;;;15.19;95.17;99722.31;5053000;28;20031;-87
2022/10/20 14:46:22;;;;;;;7.15;3.80;;;;;;;15.25;94.70;99718.06;5053012;28;20048;-85
2022/10/20 14:48:49;;;;;;;7.15;3.30;;;;;;;15.30;93.83;99719.72;5052835;28;20527;-84
2022/10/20 14:51:43;;;;;;;9.40;4.05;;;;;;;15.24;92.75;99721.19;5052548;28;20173;-81
2022/10/20 14:54:21;;;;;;;6.93;3.40;;;;;;;15.21;92.98;99730.16;5053454;28;20017;-82
2022/10/20 14:56:56;;;;;;;7.15;3.58;;;;;;;15.16;93.20;99728.56;5053457;28;20033;-82
2022/10/20 14:59:25;;;;;;;7.57;3.47;;;;;;;15.14;93.46;99719.91;5053021;28;20029;-82
2022/10/20 15:02:00;;;;;;;8.32;4.20;;;;;;;15.21;92.92;99709.03;5053086;28;20025;-83
2022/10/20 15:04:27;;;;;;;7.85;3.47;;;;;;;15.17;93.20;99723.88;5052774;28;20350;-82
2022/10/20 15:07:13;;;;;;;7.18;3.83;;;;;;;15.06;94.10;99718.25;5053232;28;20021;-82
2022/10/20 15:09:41;;;;;;;9.25;3.85;;;;;;;15.09;94.53;99720.25;5053490;28;20021;-83
2022/10/20 15:12:18;;;;;;;12.20;3.63;;;;;;;14.97;95.05;99721.28;5051649;28;20029;-84
2022/10/20 15:15:01;;;;;;;8.00;3.28;;;;;;;14.92;95.19;99709.84;5050966;28;20074;-82
2022/10/20 15:17:31;;;;;;;8.70;3.88;;;;;;;15.13;94.10;99707.38;5052766;28;20037;-84
2022/10/20 15:19:57;;;;;;;7.10;3.42;;;;;;;14.96;94.71;99703.28;5051627;28;20028;-83
2022/10/20 15:22:23;;;;;;;7.50;3.53;;;;;;;15.09;94.04;99706.53;5052827;28;20029;-85
2022/10/20 15:24:49;;;;;;;6.63;3.30;;;;;;;15.18;93.64;99706.25;5053435;28;20067;-83
2022/10/20 15:27:16;;;;;;;7.47;3.50;;;;;;;14.95;94.63;99701.69;5051649;28;20175;-85
2022/10/20 15:29:48;;;;;;;7.78;3.63;;;;;;;14.96;94.12;99699.75;5053092;28;20044;-86
2022/10/20 15:32:14;;;;;;;7.53;3.55;;;;;;;14.98;94.04;99695.47;5050883;28;20378;-80
2022/10/20 15:34:40;;;;;;;7.97;3.63;;;;;;;14.88;94.78;99698.84;5052247;28;20146;-80
2022/10/20 15:37:05;;;;;;;;;;;;;;;14.90;94.66;99687.50;5054789;28;20128;-85
2022/10/20 15:39:30;;;;;;;7.47;3.90;;;;;;;14.79;95.28;99700.31;5052342;28;20266;-84
2022/10/20 15:41:55;;;;;;;;;;;;;;;14.90;94.63;99693.00;5035972;28;20033;-84
2022/10/20 15:44:22;;;;;;;7.97;4.13;;;;;;;14.74;95.53;99680.28;5052332;28;20385;-83
2022/10/20 15:46:52;;;;;;;9.15;3.60;;;;;;;14.72;95.64;99682.59;5035569;28;20035;-81
2022/10/20 15:49:17;;;;;;;8.02;3.50;;;;;;;14.80;95.01;99672.53;5018934;28;20047;-82
2022/10/20 15:51:45;;;;;;;6.80;3.28;;;;;;;14.77;95.80;99680.69;5052428;28;20335;-84
2022/10/20 15:54:13;;;;;;;7.28;3.58;;;;;;;14.88;95.03;99684.34;5052949;28;20032;-84
2022/10/20 15:56:39;;;;;;;8.20;3.65;;;;;;;14.70;95.48;99667.69;5052452;28;20135;-85
2022/10/20 15:59:04;;;;;;;8.60;3.85;;;;;;;14.74;95.46;99669.31;5052571;28;20021;-82
2022/10/20 16:01:30;;;;;;;;;;;;;;;14.74;95.28;99665.78;5034651;28;20493;-83
2022/10/20 16:03:55;;;;;;;7.70;3.78;;;;;;;14.59;95.47;99661.28;5052306;28;19913;-82
2022/10/20 16:06:21;;;;;;;;;;;;;;;14.61;95.22;99658.97;5052487;28;20033;-81
2022/10/20 16:08:48;;;;;;;10.85;3.72;;;;;;;14.56;95.61;99657.34;5034445;28;20333;-84
2022/10/20 16:11:15;;;;;;;8.18;4.03;;;;;;;14.59;95.09;99666.78;5052082;28;20087;-83
2022/10/20 16:13:41;;;;;;;8.77;4.63;;;;;;;14.43;95.52;99664.19;5051874;28;20239;-84
2022/10/20 16:16:13;;;;;;;7.20;3.45;;;;;;;14.50;96.08;99661.59;5051607;28;20096;-84
2022/10/20 16:18:38;;;;;;;6.20;3.53;;;;;;;14.42;95.71;99662.59;5051393;28;20017;-82
2022/10/20 16:21:05;;;;;;;7.15;3.53;;;;;;;14.40;95.96;99662.19;5051946;28;20039;-85
2022/10/20 16:23:33;;;;;;;9.38;4.18;;;;;;;14.43;95.90;99675.13;5052139;28;20035;-81
2022/10/20 16:25:58;;;;;;;7.93;3.53;;;;;;;14.43;96.00;99665.00;5052062;28;20025;-82
2022/10/20 16:28:24;;;;;;;8.48;4.05;;;;;;;14.41;95.98;99658.28;5051877;28;20355;-81
2022/10/20 16:30:49;;;;;;;;;;;;;;;14.36;95.98;99656.66;5052000;28;20033;-85
2022/10/20 16:33:14;;;;;;;7.63;3.93;;;;;;;14.29;96.80;99653.84;5051485;28;20011;-84
2022/10/20 16:35:41;;;;;;;;;;;;;;;14.40;96.42;99645.75;5051990;28;20029;-86